Terminal Aerodrome Forecast
Issued by NWS

Home | Current Version | Previous Version | Text Only | Print | Product List | Glossary On
Versions: 1 2 3 4 5 6 7 8 9 10 11 12 13 14
000
FTUS45 KTFX 282300 AAA
TAFHLN
TAF AMD
KHLN 282358Z 2900/2924 29015G25KT P6SM SCT090 SCT180
     FM290200 28008KT P6SM SCT090 BKN180
     FM290500 34005KT P6SM SKC
     FM291200 VRB03KT P6SM BKN250
     FM292000 VRB06KT P6SM FEW090=

USA.gov is the U.S. government's official web portal to all federal, state and local government web resources and services.